LFPO 180530Z 23005KT 9999 FEW013 BKN033 17/14 Q1022 NOSIG

ElémentsDécodage
LFPO Station météo située sur l'aérodrome de PARIS Orly
180530Z émis le 18 du mois à 05h30 UTC
23005KT vent du 230°, 05 noeuds
9999 visibilité horizontale supérieure à 10 Km
FEW013 nuages rares (1/8 à 2/8) à 1300 pieds
BKN033 nuages morcelés (5/8 à 7/8) à 3300 pieds
17/14 température 17°C, point de rosée 14°C
 soit une humidité relative de 83%
Q1022 la pression au niveau de la mer (QNH) est de 1022 hPa
NOSIG Pas de changement significatif prévu au cours des deux heures suivant l'heure de l'observation